sensor_id;sensor_type;location;lat;lon;timestamp;pressure;altitude;pressure_sealevel;temperature;humidity
42289;BME280;30230;47.520;19.016;2023-08-31T00:01:06;98360.50;;;15.73;100.00
42289;BME280;30230;47.520;19.016;2023-08-31T00:03:06;98359.97;;;15.76;100.00
42289;BME280;30230;47.520;19.016;2023-08-31T00:05:07;98362.09;;;15.69;100.00
42289;BME280;30230;47.520;19.016;2023-08-31T00:07:07;98359.09;;;15.70;100.00
42289;BME280;30230;47.520;19.016;2023-08-31T00:09:08;98363.22;;;15.73;100.00
42289;BME280;30230;47.520;19.016;2023-08-31T00:11:09;98357.47;;;15.69;100.00
42289;BME280;30230;47.520;19.016;2023-08-31T00:13:09;98357.50;;;15.74;100.00
42289;BME280;30230;47.520;19.016;2023-08-31T00:15:10;98356.97;;;15.72;100.00
42289;BME280;30230;47.520;19.016;2023-08-31T00:17:10;98350.44;;;15.73;100.00
42289;BME280;30230;47.520;19.016;2023-08-31T00:19:11;98346.31;;;15.71;100.00
42289;BME280;30230;47.520;19.016;2023-08-31T00:21:12;98349.84;;;15.71;100.00
42289;BME280;30230;47.520;19.016;2023-08-31T00:23:13;98354.28;;;15.77;100.00
42289;BME280;30230;47.520;19.016;2023-08-31T00:25:13;98349.31;;;15.69;100.00
42289;BME280;30230;47.520;19.016;2023-08-31T00:27:13;98350.94;;;15.70;100.00
42289;BME280;30230;47.520;19.016;2023-08-31T00:29:15;98356.44;;;15.75;100.00
42289;BME280;30230;47.520;19.016;2023-08-31T00:31:16;98354.25;;;15.72;100.00
42289;BME280;30230;47.520;19.016;2023-08-31T00:33:17;98362.09;;;15.69;100.00
42289;BME280;30230;47.520;19.016;2023-08-31T00:35:17;98357.44;;;15.64;100.00
42289;BME280;30230;47.520;19.016;2023-08-31T00:37:17;98353.94;;;15.69;100.00
42289;BME280;30230;47.520;19.016;2023-08-31T00:39:18;98358.25;;;15.65;100.00
42289;BME280;30230;47.520;19.016;2023-08-31T00:41:22;98356.38;;;15.70;100.00
42289;BME280;30230;47.520;19.016;2023-08-31T00:43:23;98359.06;;;15.65;100.00
42289;BME280;30230;47.520;19.016;2023-08-31T00:45:23;98347.97;;;15.72;100.00
42289;BME280;30230;47.520;19.016;2023-08-31T00:47:24;98345.25;;;15.72;100.00
42289;BME280;30230;47.520;19.016;2023-08-31T00:49:25;98339.31;;;15.80;100.00
42289;BME280;30230;47.520;19.016;2023-08-31T00:51:25;98344.22;;;15.78;100.00
42289;BME280;30230;47.520;19.016;2023-08-31T00:53:26;98344.41;;;15.71;100.00
42289;BME280;30230;47.520;19.016;2023-08-31T00:55:27;98341.69;;;15.71;100.00
42289;BME280;30230;47.520;19.016;2023-08-31T00:57:27;98342.25;;;15.73;100.00
42289;BME280;30230;47.520;19.016;2023-08-31T00:59:28;98339.53;;;15.73;100.00
42289;BME280;30230;47.520;19.016;2023-08-31T01:02:14;98344.22;;;15.78;100.00
42289;BME280;30230;47.520;19.016;2023-08-31T01:05:02;98346.13;;;15.77;100.00
42289;BME280;30230;47.520;19.016;2023-08-31T01:07:21;98357.81;;;15.78;100.00
42289;BME280;30230;47.520;19.016;2023-08-31T01:09:43;98361.31;;;15.73;100.00
42289;BME280;30230;47.520;19.016;2023-08-31T01:12:02;98361.63;;;15.77;100.00
42289;BME280;30230;47.520;19.016;2023-08-31T01:14:11;98359.09;;;15.70;100.00
42289;BME280;30230;47.520;19.016;2023-08-31T01:16:15;98359.69;;;15.72;100.00
42289;BME280;30230;47.520;19.016;2023-08-31T01:18:17;98355.84;;;15.68;100.00
42289;BME280;30230;47.520;19.016;2023-08-31T01:20:30;98365.19;;;15.77;100.00
42289;BME280;30230;47.520;19.016;2023-08-31T01:22:38;98360.56;;;15.78;100.00
42289;BME280;30230;47.520;19.016;2023-08-31T01:24:43;98361.09;;;15.80;100.00
42289;BME280;30230;47.520;19.016;2023-08-31T01:26:43;98362.97;;;15.74;100.00
42289;BME280;30230;47.520;19.016;2023-08-31T01:28:44;98369.50;;;15.73;100.00
42289;BME280;30230;47.520;19.016;2023-08-31T01:30:45;98368.13;;;15.76;100.00
42289;BME280;30230;47.520;19.016;2023-08-31T01:32:46;98373.25;;;15.67;100.00
42289;BME280;30230;47.520;19.016;2023-08-31T01:34:47;98372.47;;;15.72;100.00
42289;BME280;30230;47.520;19.016;2023-08-31T01:36:52;98391.78;;;15.70;100.00
42289;BME280;30230;47.520;19.016;2023-08-31T01:39:31;98385.28;;;15.76;100.00
42289;BME280;30230;47.520;19.016;2023-08-31T01:41:34;98390.19;;;15.74;100.00
42289;BME280;30230;47.520;19.016;2023-08-31T01:43:35;98387.97;;;15.71;100.00
42289;BME280;30230;47.520;19.016;2023-08-31T01:45:37;98390.50;;;15.78;100.00
42289;BME280;30230;47.520;19.016;2023-08-31T01:47:38;98387.00;;;15.82;100.00
42289;BME280;30230;47.520;19.016;2023-08-31T01:49:39;98388.09;;;15.86;100.00
42289;BME280;30230;47.520;19.016;2023-08-31T01:51:39;98384.06;;;15.89;100.00
42289;BME280;30230;47.520;19.016;2023-08-31T01:53:40;98384.00;;;15.84;100.00
42289;BME280;30230;47.520;19.016;2023-08-31T01:55:40;98381.28;;;15.84;100.00
42289;BME280;30230;47.520;19.016;2023-08-31T01:57:41;98382.66;;;15.86;100.00
42289;BME280;30230;47.520;19.016;2023-08-31T01:59:41;98390.53;;;15.83;100.00
42289;BME280;30230;47.520;19.016;2023-08-31T02:01:42;98391.38;;;15.83;100.00
42289;BME280;30230;47.520;19.016;2023-08-31T02:03:42;98383.66;;;15.75;100.00
42289;BME280;30230;47.520;19.016;2023-08-31T02:05:43;98378.03;;;15.82;100.00
42289;BME280;30230;47.520;19.016;2023-08-31T02:07:43;98384.31;;;15.87;100.00
42289;BME280;30230;47.520;19.016;2023-08-31T02:09:44;98380.19;;;15.85;100.00
42289;BME280;30230;47.520;19.016;2023-08-31T02:11:44;98377.75;;;15.83;100.00
42289;BME280;30230;47.520;19.016;2023-08-31T02:13:44;98387.38;;;15.96;100.00
42289;BME280;30230;47.520;19.016;2023-08-31T02:15:45;98381.06;;;15.91;100.00
42289;BME280;30230;47.520;19.016;2023-08-31T02:17:45;98384.84;;;15.84;100.00
42289;BME280;30230;47.520;19.016;2023-08-31T02:19:45;98392.91;;;15.74;100.00
42289;BME280;30230;47.520;19.016;2023-08-31T02:21:46;98395.13;;;15.77;100.00
42289;BME280;30230;47.520;19.016;2023-08-31T02:23:46;98390.19;;;15.74;100.00
42289;BME280;30230;47.520;19.016;2023-08-31T02:25:47;98398.72;;;15.83;100.00
42289;BME280;30230;47.520;19.016;2023-08-31T02:27:47;98394.59;;;15.80;100.00
42289;BME280;30230;47.520;19.016;2023-08-31T02:29:47;98397.59;;;15.79;100.00
42289;BME280;30230;47.520;19.016;2023-08-31T02:31:48;98398.09;;;15.76;100.00
42289;BME280;30230;47.520;19.016;2023-08-31T02:33:48;98395.91;;;15.73;100.00
42289;BME280;30230;47.520;19.016;2023-08-31T02:35:49;98399.38;;;15.68;100.00
42289;BME280;30230;47.520;19.016;2023-08-31T02:37:50;98400.47;;;15.67;100.00
42289;BME280;30230;47.520;19.016;2023-08-31T02:39:50;98401.56;;;15.66;100.00
42289;BME280;30230;47.520;19.016;2023-08-31T02:41:51;98388.94;;;15.60;100.00
42289;BME280;30230;47.520;19.016;2023-08-31T02:43:52;98395.53;;;15.64;100.00
42289;BME280;30230;47.520;19.016;2023-08-31T02:46:02;98399.66;;;15.67;100.00
42289;BME280;30230;47.520;19.016;2023-08-31T02:48:03;98398.84;;;15.66;100.00
42289;BME280;30230;47.520;19.016;2023-08-31T02:50:04;98398.50;;;15.62;100.00
42289;BME280;30230;47.520;19.016;2023-08-31T02:52:05;98403.44;;;15.66;100.00
42289;BME280;30230;47.520;19.016;2023-08-31T02:54:05;98401.28;;;15.68;100.00
42289;BME280;30230;47.520;19.016;2023-08-31T02:56:06;98398.50;;;15.62;100.00
42289;BME280;30230;47.520;19.016;2023-08-31T02:58:06;98390.41;;;15.68;100.00
42289;BME280;30230;47.520;19.016;2023-08-31T03:00:07;98401.78;;;15.65;100.00
42289;BME280;30230;47.520;19.016;2023-08-31T03:02:12;98403.69;;;15.64;100.00
42289;BME280;30230;47.520;19.016;2023-08-31T03:04:13;98402.38;;;15.67;100.00
42289;BME280;30230;47.520;19.016;2023-08-31T03:06:13;98405.66;;;15.69;100.00
42289;BME280;30230;47.520;19.016;2023-08-31T03:08:15;98404.16;;;15.56;100.00
42289;BME280;30230;47.520;19.016;2023-08-31T03:10:15;98399.56;;;15.61;100.00
42289;BME280;30230;47.520;19.016;2023-08-31T03:12:16;98400.63;;;15.60;100.00
42289;BME280;30230;47.520;19.016;2023-08-31T03:14:16;98401.47;;;15.61;100.00
42289;BME280;30230;47.520;19.016;2023-08-31T03:16:16;98403.31;;;15.55;100.00
42289;BME280;30230;47.520;19.016;2023-08-31T03:18:17;98408.50;;;15.57;100.00
42289;BME280;30230;47.520;19.016;2023-08-31T03:20:18;98407.94;;;15.55;100.00
42289;BME280;30230;47.520;19.016;2023-08-31T03:22:18;98404.69;;;15.58;100.00
42289;BME280;30230;47.520;19.016;2023-08-31T03:24:18;98405.84;;;15.62;100.00
42289;BME280;30230;47.520;19.016;2023-08-31T03:26:19;98401.97;;;15.58;100.00
42289;BME280;30230;47.520;19.016;2023-08-31T03:28:20;98400.34;;;15.57;100.00
42289;BME280;30230;47.520;19.016;2023-08-31T03:30:21;98395.41;;;15.54;100.00
42289;BME280;30230;47.520;19.016;2023-08-31T03:32:21;98399.16;;;15.48;100.00
42289;BME280;30230;47.520;19.016;2023-08-31T03:34:21;98404.34;;;15.49;100.00
42289;BME280;30230;47.520;19.016;2023-08-31T03:36:22;98412.72;;;15.43;100.00
42289;BME280;30230;47.520;19.016;2023-08-31T03:38:22;98410.19;;;15.36;100.00
42289;BME280;30230;47.520;19.016;2023-08-31T03:40:22;98406.59;;;15.30;100.00
42289;BME280;30230;47.520;19.016;2023-08-31T03:42:23;98411.50;;;15.33;100.00
42289;BME280;30230;47.520;19.016;2023-08-31T03:44:23;98414.19;;;15.28;100.00
42289;BME280;30230;47.520;19.016;2023-08-31T03:46:24;98423.41;;;15.27;100.00
42289;BME280;30230;47.520;19.016;2023-08-31T03:48:26;98423.81;;;15.36;100.00
42289;BME280;30230;47.520;19.016;2023-08-31T03:50:27;98431.66;;;15.32;100.00
42289;BME280;30230;47.520;19.016;2023-08-31T03:52:27;98426.09;;;15.22;100.00
42289;BME280;30230;47.520;19.016;2023-08-31T03:54:28;98429.06;;;15.21;100.00
42289;BME280;30230;47.520;19.016;2023-08-31T03:56:28;98434.56;;;15.26;100.00
42289;BME280;30230;47.520;19.016;2023-08-31T03:58:28;98426.63;;;15.24;100.00
42289;BME280;30230;47.520;19.016;2023-08-31T04:00:29;98426.69;;;15.29;100.00
42289;BME280;30230;47.520;19.016;2023-08-31T04:02:29;98423.84;;;15.19;100.00
42289;BME280;30230;47.520;19.016;2023-08-31T04:04:31;98421.53;;;15.28;100.00
42289;BME280;30230;47.520;19.016;2023-08-31T04:06:32;98419.94;;;15.32;100.00
42289;BME280;30230;47.520;19.016;2023-08-31T04:08:32;98420.16;;;15.25;100.00
42289;BME280;30230;47.520;19.016;2023-08-31T04:10:33;98426.63;;;15.24;100.00
42289;BME280;30230;47.520;19.016;2023-08-31T04:12:33;98437.59;;;15.29;100.00
42289;BME280;30230;47.520;19.016;2023-08-31T04:14:34;98438.66;;;15.28;100.00
42289;BME280;30230;47.520;19.016;2023-08-31T04:16:35;98430.00;;;15.31;100.00
42289;BME280;30230;47.520;19.016;2023-08-31T04:18:35;98432.97;;;15.30;100.00
42289;BME280;30230;47.520;19.016;2023-08-31T04:20:36;98438.28;;;15.42;100.00
42289;BME280;30230;47.520;19.016;2023-08-31T04:22:36;98425.94;;;15.34;100.00
42289;BME280;30230;47.520;19.016;2023-08-31T04:24:36;98423.22;;;15.34;100.00
42289;BME280;30230;47.520;19.016;2023-08-31T04:26:37;98428.97;;;15.37;100.00
42289;BME280;30230;47.520;19.016;2023-08-31T04:28:37;98435.34;;;15.48;100.00
42289;BME280;30230;47.520;19.016;2023-08-31T04:30:39;98433.13;;;15.45;100.00
42289;BME280;30230;47.520;19.016;2023-08-31T04:32:39;98445.97;;;15.50;100.00
42289;BME280;30230;47.520;19.016;2023-08-31T04:34:40;98443.84;;;15.52;99.43
42289;BME280;30230;47.520;19.016;2023-08-31T04:36:40;98439.66;;;15.44;99.46
42289;BME280;30230;47.520;19.016;2023-08-31T04:38:40;98454.66;;;15.47;100.00
42289;BME280;30230;47.520;19.016;2023-08-31T04:40:41;98456.97;;;15.60;99.88
42289;BME280;30230;47.520;19.016;2023-08-31T04:42:42;98465.81;;;15.67;99.15
42289;BME280;30230;47.520;19.016;2023-08-31T04:44:42;98466.41;;;15.74;98.36
42289;BME280;30230;47.520;19.016;2023-08-31T04:46:43;98462.06;;;15.73;98.06
42289;BME280;30230;47.520;19.016;2023-08-31T04:48:43;98463.44;;;15.76;97.54
42289;BME280;30230;47.520;19.016;2023-08-31T04:50:44;98477.38;;;15.79;97.79
42289;BME280;30230;47.520;19.016;2023-08-31T04:52:44;98483.84;;;15.73;97.26
42289;BME280;30230;47.520;19.016;2023-08-31T04:54:44;98470.84;;;15.80;96.27
42289;BME280;30230;47.520;19.016;2023-08-31T04:56:45;98486.13;;;15.86;96.44
42289;BME280;30230;47.520;19.016;2023-08-31T04:58:45;98483.13;;;15.83;95.99
42289;BME280;30230;47.520;19.016;2023-08-31T05:00:46;98491.03;;;15.84;95.44
42289;BME280;30230;47.520;19.016;2023-08-31T05:02:47;98491.97;;;15.95;95.07
42289;BME280;30230;47.520;19.016;2023-08-31T05:04:48;98490.59;;;15.93;95.50
42289;BME280;30230;47.520;19.016;2023-08-31T05:06:48;98497.41;;;15.95;95.36
42289;BME280;30230;47.520;19.016;2023-08-31T05:08:49;98499.31;;;15.95;95.04
42289;BME280;30230;47.520;19.016;2023-08-31T05:10:49;98494.94;;;15.94;95.39
42289;BME280;30230;47.520;19.016;2023-08-31T05:12:49;98504.25;;;15.98;94.19
42289;BME280;30230;47.520;19.016;2023-08-31T05:14:50;98518.75;;;16.03;94.47
42289;BME280;30230;47.520;19.016;2023-08-31T05:16:50;98510.00;;;16.01;94.58
42289;BME280;30230;47.520;19.016;2023-08-31T05:18:51;98515.16;;;15.98;94.05
42289;BME280;30230;47.520;19.016;2023-08-31T05:20:52;98519.63;;;16.09;94.75
42289;BME280;30230;47.520;19.016;2023-08-31T05:22:52;98520.97;;;16.11;95.14
42289;BME280;30230;47.520;19.016;2023-08-31T05:24:52;98527.06;;;16.19;93.82
42289;BME280;30230;47.520;19.016;2023-08-31T05:26:53;98526.44;;;16.11;nan
42289;BME280;30230;47.520;19.016;2023-08-31T05:28:53;98525.72;;;16.21;94.65
42289;BME280;30230;47.520;19.016;2023-08-31T05:30:56;98522.66;;;16.18;94.42
42289;BME280;30230;47.520;19.016;2023-08-31T05:32:57;98528.59;;;16.09;94.69
42289;BME280;30230;47.520;19.016;2023-08-31T05:34:57;98525.13;;;16.14;94.79
42289;BME280;30230;47.520;19.016;2023-08-31T05:36:59;98531.69;;;16.18;95.53
42289;BME280;30230;47.520;19.016;2023-08-31T05:38:59;98519.63;;;16.09;94.65
42289;BME280;30230;47.520;19.016;2023-08-31T05:41:09;98532.19;;;16.15;95.39
42289;BME280;30230;47.520;19.016;2023-08-31T05:43:10;98534.75;;;16.27;94.46
42289;BME280;30230;47.520;19.016;2023-08-31T05:45:10;98538.19;;;16.17;93.78
42289;BME280;30230;47.520;19.016;2023-08-31T05:47:10;98541.59;;;16.29;93.14
42289;BME280;30230;47.520;19.016;2023-08-31T05:49:11;98540.47;;;16.25;93.40
42289;BME280;30230;47.520;19.016;2023-08-31T05:51:11;98547.34;;;16.33;93.47
42289;BME280;30230;47.520;19.016;2023-08-31T05:53:11;98543.56;;;16.34;93.08
42289;BME280;30230;47.520;19.016;2023-08-31T05:55:12;98543.78;;;16.32;94.23
42289;BME280;30230;47.520;19.016;2023-08-31T05:57:12;98535.03;;;16.25;93.02
42289;BME280;30230;47.520;19.016;2023-08-31T05:59:13;98549.56;;;16.36;93.48
42289;BME280;30230;47.520;19.016;2023-08-31T06:01:13;98550.16;;;16.43;93.07
42289;BME280;30230;47.520;19.016;2023-08-31T06:03:13;98548.28;;;16.49;93.41
42289;BME280;30230;47.520;19.016;2023-08-31T06:05:14;98552.16;;;16.53;92.11
42289;BME280;30230;47.520;19.016;2023-08-31T06:07:17;98549.50;;;16.63;92.52
42289;BME280;30230;47.520;19.016;2023-08-31T06:09:18;98562.25;;;16.84;93.05
42289;BME280;30230;47.520;19.016;2023-08-31T06:11:18;98562.31;;;16.95;92.21
42289;BME280;30230;47.520;19.016;2023-08-31T06:13:19;98564.06;;;17.06;91.40
42289;BME280;30230;47.520;19.016;2023-08-31T06:15:19;98557.78;;;17.10;89.82
42289;BME280;30230;47.520;19.016;2023-08-31T06:17:19;98562.72;;;17.13;90.02
42289;BME280;30230;47.520;19.016;2023-08-31T06:19:20;98567.09;;;17.14;90.40
42289;BME280;30230;47.520;19.016;2023-08-31T06:21:20;98570.16;;;17.23;89.79
42289;BME280;30230;47.520;19.016;2023-08-31T06:23:20;98574.56;;;17.29;89.12
42289;BME280;30230;47.520;19.016;2023-08-31T06:25:21;98581.78;;;17.51;89.71
42289;BME280;30230;47.520;19.016;2023-08-31T06:27:22;98578.50;;;17.49;88.88
42289;BME280;30230;47.520;19.016;2023-08-31T06:29:23;98582.59;;;17.51;86.87
42289;BME280;30230;47.520;19.016;2023-08-31T06:31:23;98587.75;;;17.42;88.09
42289;BME280;30230;47.520;19.016;2023-08-31T06:33:24;98588.53;;;17.38;87.99
42289;BME280;30230;47.520;19.016;2023-08-31T06:35:24;98585.56;;;17.44;87.09
42289;BME280;30230;47.520;19.016;2023-08-31T06:37:24;98593.19;;;17.37;87.88
42289;BME280;30230;47.520;19.016;2023-08-31T06:39:25;98601.41;;;17.42;88.00
42289;BME280;30230;47.520;19.016;2023-08-31T06:41:25;98597.63;;;17.49;89.22
42289;BME280;30230;47.520;19.016;2023-08-31T06:43:26;98600.88;;;17.51;90.35
42289;BME280;30230;47.520;19.016;2023-08-31T06:45:29;98603.09;;;17.54;88.42
42289;BME280;30230;47.520;19.016;2023-08-31T06:47:29;98591.56;;;17.47;88.03
42289;BME280;30230;47.520;19.016;2023-08-31T06:49:29;98595.94;;;17.42;86.94
42289;BME280;30230;47.520;19.016;2023-08-31T06:51:32;98590.22;;;17.44;87.46
42289;BME280;30230;47.520;19.016;2023-08-31T06:53:33;98598.13;;;17.45;88.92
42289;BME280;30230;47.520;19.016;2023-08-31T06:55:33;98592.97;;;17.49;89.00
42289;BME280;30230;47.520;19.016;2023-08-31T06:57:34;98594.53;;;17.35;88.23
42289;BME280;30230;47.520;19.016;2023-08-31T06:59:34;98602.47;;;17.41;88.08
42289;BME280;30230;47.520;19.016;2023-08-31T07:01:35;98580.09;;;17.39;88.93
42289;BME280;30230;47.520;19.016;2023-08-31T07:03:35;98598.47;;;17.54;87.93
42289;BME280;30230;47.520;19.016;2023-08-31T07:05:36;98597.03;;;17.47;87.87
42289;BME280;30230;47.520;19.016;2023-08-31T07:07:41;98614.88;;;17.59;87.84
42289;BME280;30230;47.520;19.016;2023-08-31T07:09:42;98604.75;;;17.60;88.66
42289;BME280;30230;47.520;19.016;2023-08-31T07:11:43;98614.34;;;17.67;88.47
42289;BME280;30230;47.520;19.016;2023-08-31T07:13:43;98612.41;;;17.58;86.31
42289;BME280;30230;47.520;19.016;2023-08-31T07:15:43;98607.91;;;17.79;86.74
42289;BME280;30230;47.520;19.016;2023-08-31T07:17:44;98614.22;;;17.84;87.19
42289;BME280;30230;47.520;19.016;2023-08-31T07:19:45;98618.03;;;17.93;86.96
42289;BME280;30230;47.520;19.016;2023-08-31T07:21:45;98614.53;;;18.08;87.99
42289;BME280;30230;47.520;19.016;2023-08-31T07:23:47;98615.94;;;18.11;87.48
42289;BME280;30230;47.520;19.016;2023-08-31T07:25:48;98619.78;;;18.15;84.02
42289;BME280;30230;47.520;19.016;2023-08-31T07:27:49;98622.78;;;18.23;83.44
42289;BME280;30230;47.520;19.016;2023-08-31T07:29:49;98619.53;;;18.27;82.58
42289;BME280;30230;47.520;19.016;2023-08-31T07:31:49;98622.00;;;18.33;82.88
42289;BME280;30230;47.520;19.016;2023-08-31T07:33:50;98620.38;;;18.32;81.96
42289;BME280;30230;47.520;19.016;2023-08-31T07:35:50;98620.38;;;18.42;81.14
42289;BME280;30230;47.520;19.016;2023-08-31T07:37:51;98623.94;;;18.48;81.42
42289;BME280;30230;47.520;19.016;2023-08-31T07:39:51;98629.97;;;18.55;81.41
42289;BME280;30230;47.520;19.016;2023-08-31T07:41:53;98618.78;;;18.62;80.54
42289;BME280;30230;47.520;19.016;2023-08-31T07:43:54;98624.84;;;18.79;80.90
42289;BME280;30230;47.520;19.016;2023-08-31T07:45:55;98622.09;;;18.79;78.87
42289;BME280;30230;47.520;19.016;2023-08-31T07:47:56;98637.72;;;18.89;79.75
42289;BME280;30230;47.520;19.016;2023-08-31T07:49:56;98628.41;;;19.00;78.61
42289;BME280;30230;47.520;19.016;2023-08-31T07:51:57;98622.06;;;19.35;77.99
42289;BME280;30230;47.520;19.016;2023-08-31T07:53:57;98622.06;;;19.35;78.29
42289;BME280;30230;47.520;19.016;2023-08-31T07:55:57;98622.06;;;19.45;77.62
42289;BME280;30230;47.520;19.016;2023-08-31T07:57:58;98633.31;;;19.34;77.33
42289;BME280;30230;47.520;19.016;2023-08-31T07:59:58;98620.69;;;19.27;76.93
42289;BME280;30230;47.520;19.016;2023-08-31T08:01:58;98634.38;;;19.33;75.76
42289;BME280;30230;47.520;19.016;2023-08-31T08:03:59;98645.63;;;19.36;76.30
42289;BME280;30230;47.520;19.016;2023-08-31T08:05:59;98637.41;;;19.31;75.95
42289;BME280;30230;47.520;19.016;2023-08-31T08:08:00;98638.47;;;19.56;75.96
42289;BME280;30230;47.520;19.016;2023-08-31T08:10:00;98636.25;;;19.68;74.99
42289;BME280;30230;47.520;19.016;2023-08-31T08:12:01;98638.03;;;20.13;74.69
42289;BME280;30230;47.520;19.016;2023-08-31T08:14:01;98644.31;;;20.14;73.61
42289;BME280;30230;47.520;19.016;2023-08-31T08:16:02;98641.22;;;20.30;72.26
42289;BME280;30230;47.520;19.016;2023-08-31T08:18:02;98649.13;;;20.42;69.86
42289;BME280;30230;47.520;19.016;2023-08-31T08:20:04;98644.78;;;20.31;71.57
42289;BME280;30230;47.520;19.016;2023-08-31T08:22:05;98652.56;;;20.14;71.93
42289;BME280;30230;47.520;19.016;2023-08-31T08:24:05;98660.50;;;20.10;72.84
42289;BME280;30230;47.520;19.016;2023-08-31T08:26:06;98657.50;;;20.12;71.88
42289;BME280;30230;47.520;19.016;2023-08-31T08:28:06;98663.50;;;20.19;71.90
42289;BME280;30230;47.520;19.016;2023-08-31T08:30:07;98660.16;;;20.32;72.94
42289;BME280;30230;47.520;19.016;2023-08-31T08:32:07;98655.78;;;20.26;73.03
42289;BME280;30230;47.520;19.016;2023-08-31T08:34:09;98659.56;;;20.35;73.17
42289;BME280;30230;47.520;19.016;2023-08-31T08:36:09;98665.63;;;20.32;73.35
42289;BME280;30230;47.520;19.016;2023-08-31T08:38:09;98660.09;;;20.42;74.49
42289;BME280;30230;47.520;19.016;2023-08-31T08:40:10;98665.84;;;20.41;73.61
42289;BME280;30230;47.520;19.016;2023-08-31T08:42:11;98666.75;;;20.26;74.06
42289;BME280;30230;47.520;19.016;2023-08-31T08:44:16;98668.72;;;20.15;75.58
42289;BME280;30230;47.520;19.016;2023-08-31T08:46:17;98674.75;;;20.17;76.98
42289;BME280;30230;47.520;19.016;2023-08-31T08:48:18;98676.66;;;20.22;73.04
42289;BME280;30230;47.520;19.016;2023-08-31T08:50:20;98677.22;;;20.19;74.45
42289;BME280;30230;47.520;19.016;2023-08-31T08:52:23;98674.00;;;20.01;75.94
42289;BME280;30230;47.520;19.016;2023-08-31T08:54:24;98693.72;;;20.03;74.29
42289;BME280;30230;47.520;19.016;2023-08-31T08:56:25;98676.22;;;19.89;73.88
42289;BME280;30230;47.520;19.016;2023-08-31T08:58:26;98692.41;;;19.91;73.96
42289;BME280;30230;47.520;19.016;2023-08-31T09:00:27;98687.44;;;19.98;72.83
42289;BME280;30230;47.520;19.016;2023-08-31T09:02:27;98692.09;;;19.97;72.03
42289;BME280;30230;47.520;19.016;2023-08-31T09:04:30;98697.78;;;20.16;72.53
42289;BME280;30230;47.520;19.016;2023-08-31T09:06:31;98702.72;;;20.14;73.72
42289;BME280;30230;47.520;19.016;2023-08-31T09:08:31;98700.56;;;20.11;74.65
42289;BME280;30230;47.520;19.016;2023-08-31T09:10:44;98707.91;;;20.16;75.51
42289;BME280;30230;47.520;19.016;2023-08-31T09:12:45;98708.47;;;20.23;75.23
42289;BME280;30230;47.520;19.016;2023-08-31T09:15:00;98710.06;;;20.34;74.64
42289;BME280;30230;47.520;19.016;2023-08-31T09:17:00;98706.78;;;20.32;73.90
42289;BME280;30230;47.520;19.016;2023-08-31T09:19:21;98711.97;;;20.39;72.73
42289;BME280;30230;47.520;19.016;2023-08-31T09:21:22;98716.03;;;20.41;74.43
42289;BME280;30230;47.520;19.016;2023-08-31T09:23:24;98723.44;;;20.51;73.44
42289;BME280;30230;47.520;19.016;2023-08-31T09:25:25;98720.94;;;20.60;74.44
42289;BME280;30230;47.520;19.016;2023-08-31T09:27:25;98719.31;;;20.59;73.40
42289;BME280;30230;47.520;19.016;2023-08-31T09:29:26;98730.81;;;20.61;73.14
42289;BME280;30230;47.520;19.016;2023-08-31T09:31:29;98723.13;;;20.63;74.00
42289;BME280;30230;47.520;19.016;2023-08-31T09:33:31;98725.28;;;20.66;74.54
42289;BME280;30230;47.520;19.016;2023-08-31T09:35:31;98723.00;;;20.83;72.73
42289;BME280;30230;47.520;19.016;2023-08-31T09:37:32;98721.38;;;20.77;71.06
42289;BME280;30230;47.520;19.016;2023-08-31T09:39:36;98717.53;;;20.83;70.51
42289;BME280;30230;47.520;19.016;2023-08-31T09:41:53;98719.41;;;20.83;70.81
42289;BME280;30230;47.520;19.016;2023-08-31T09:43:53;98721.84;;;20.94;71.02
42289;BME280;30230;47.520;19.016;2023-08-31T09:45:54;98725.31;;;21.10;71.31
42289;BME280;30230;47.520;19.016;2023-08-31T09:47:54;98727.19;;;21.15;69.03
42289;BME280;30230;47.520;19.016;2023-08-31T09:49:56;98718.13;;;21.14;67.41
42289;BME280;30230;47.520;19.016;2023-08-31T09:52:00;98717.16;;;21.29;63.86
42289;BME280;30230;47.520;19.016;2023-08-31T09:54:03;98724.19;;;21.50;63.82
42289;BME280;30230;47.520;19.016;2023-08-31T09:56:06;98726.63;;;21.52;64.01
42289;BME280;30230;47.520;19.016;2023-08-31T09:58:08;98729.13;;;21.48;62.36
42289;BME280;30230;47.520;19.016;2023-08-31T10:00:09;98733.59;;;21.39;62.34
42289;BME280;30230;47.520;19.016;2023-08-31T10:02:11;98737.34;;;21.53;64.67
42289;BME280;30230;47.520;19.016;2023-08-31T10:04:13;98733.97;;;21.62;65.12
42289;BME280;30230;47.520;19.016;2023-08-31T10:06:14;98740.75;;;21.98;64.93
42289;BME280;30230;47.520;19.016;2023-08-31T10:08:15;98747.13;;;21.94;63.06
42289;BME280;30230;47.520;19.016;2023-08-31T10:10:16;98740.97;;;21.78;63.00
42289;BME280;30230;47.520;19.016;2023-08-31T10:12:18;98740.09;;;21.53;63.11
42289;BME280;30230;47.520;19.016;2023-08-31T10:14:19;98750.41;;;21.32;63.90
42289;BME280;30230;47.520;19.016;2023-08-31T10:16:21;98748.88;;;21.16;66.43
42289;BME280;30230;47.520;19.016;2023-08-31T10:18:22;98755.50;;;21.10;67.75
42289;BME280;30230;47.520;19.016;2023-08-31T10:20:22;98754.13;;;21.07;67.51
42289;BME280;30230;47.520;19.016;2023-08-31T10:22:23;98756.44;;;20.90;67.16
42289;BME280;30230;47.520;19.016;2023-08-31T10:25:05;98759.00;;;20.71;69.41
42289;BME280;30230;47.520;19.016;2023-08-31T10:27:21;98759.56;;;20.73;70.60
42289;BME280;30230;47.520;19.016;2023-08-31T10:29:27;98760.66;;;20.72;69.67
42289;BME280;30230;47.520;19.016;2023-08-31T10:31:30;98762.25;;;20.84;69.91
42289;BME280;30230;47.520;19.016;2023-08-31T10:33:34;98765.59;;;20.75;70.72